Time;durP1;ratioP1;P1;durP2;ratioP2;P2;SDS_P1;SDS_P2;PMS_P1;PMS_P2;Temp;Humidity;BMP_temperature;BMP_pressure;BME280_temperature;BME280_humidity;BME280_pressure;Samples;Min_cycle;Max_cycle;Signal;HPM_P1;HPM_P2
2022/01/15 00:01:31;;;;;;;52.08;22.88;;;;;;;2.41;100.00;103252.78;5090280;28;20036;-69
2022/01/15 00:03:57;;;;;;;67.53;23.38;;;;;;;2.34;100.00;103247.03;5089713;28;20056;-69
2022/01/15 00:06:22;;;;;;;66.55;23.80;;;;;;;2.30;100.00;103249.91;5089673;28;20040;-69
2022/01/15 00:08:48;;;;;;;60.35;26.08;;;;;;;2.27;100.00;103244.81;5090176;28;20971;-69
2022/01/15 00:11:13;;;;;;;56.03;21.48;;;;;;;2.23;100.00;103243.25;5090240;28;20115;-69
2022/01/15 00:13:41;;;;;;;55.03;22.83;;;;;;;2.18;100.00;103235.63;5090068;28;20394;-69
2022/01/15 00:18:48;;;;;;;60.50;24.15;;;;;;;2.14;100.00;103229.66;5090163;28;20077;-69
2022/01/15 00:21:14;;;;;;;68.18;23.17;;;;;;;2.13;100.00;103219.25;5070183;28;20078;-69
2022/01/15 00:23:40;;;;;;;56.42;21.35;;;;;;;2.12;100.00;103222.78;5070019;28;20024;-69
2022/01/15 00:26:06;;;;;;;59.22;20.40;;;;;;;2.09;100.00;103218.53;5070434;28;20043;-69
2022/01/15 00:28:31;;;;;;;53.33;21.27;;;;;;;2.09;100.00;103218.53;5070305;28;20414;-69
2022/01/15 00:30:57;;;;;;;58.17;22.52;;;;;;;2.12;100.00;103217.53;5070316;28;20035;-69
2022/01/15 00:33:24;;;;;;;56.47;22.77;;;;;;;2.14;100.00;103215.66;5070294;28;20024;-69
2022/01/15 00:35:49;;;;;;;57.42;22.45;;;;;;;2.17;100.00;103233.91;5089951;28;20077;-69
2022/01/15 00:38:15;;;;;;;52.40;23.00;;;;;;;2.19;100.00;103222.38;5089619;28;20563;-69
2022/01/15 00:40:40;;;;;;;65.53;20.63;;;;;;;2.21;100.00;103227.56;5089511;28;20433;-69
2022/01/15 00:43:05;;;;;;;64.68;23.45;;;;;;;2.22;100.00;103223.16;5088274;28;20474;-69
2022/01/15 00:45:33;;;;;;;55.67;25.27;;;;;;;2.15;100.00;103201.59;5089528;28;20463;-69
2022/01/15 00:47:59;;;;;;;54.47;22.17;;;;;;;2.19;100.00;103214.47;5088228;28;20032;-69
2022/01/15 00:50:24;;;;;;;52.40;20.92;;;;;;;2.15;100.00;103191.06;5070134;28;20065;-69
2022/01/15 00:52:50;;;;;;;47.85;18.77;;;;;;;2.12;100.00;103186.81;5070215;28;20039;-69
2022/01/15 00:55:18;;;;;;;50.60;19.90;;;;;;;2.08;100.00;103189.69;5070028;28;20031;-69
2022/01/15 00:57:43;;;;;;;54.35;20.60;;;;;;;2.06;100.00;103194.19;5069835;28;20084;-69
2022/01/15 01:00:11;;;;;;;59.10;22.17;;;;;;;2.02;100.00;103190.00;5069976;28;20071;-69
2022/01/15 01:02:37;;;;;;;51.22;21.13;;;;;;;2.01;100.00;103191.78;5068889;28;20075;-69
2022/01/15 01:05:02;;;;;;;71.50;23.13;;;;;;;2.00;100.00;103184.00;5069992;28;20032;-69
2022/01/15 01:07:28;;;;;;;61.63;21.23;;;;;;;2.00;100.00;103190.09;5069794;28;20050;-69
2022/01/15 01:20:27;;;;;;;56.25;23.15;;;;;;;1.98;100.00;103170.91;5088814;28;20102;-69
2022/01/15 01:22:55;;;;;;;66.32;25.48;;;;;;;1.94;100.00;103166.75;5088763;28;20024;-69
2022/01/15 01:25:23;;;;;;;61.58;23.38;;;;;;;2.00;100.00;103170.81;5088619;28;20098;-69
2022/01/15 01:27:52;;;;;;;61.25;21.17;;;;;;;2.02;100.00;103169.81;5089205;28;20467;-69
2022/01/15 01:30:44;;;;;;;68.10;27.05;;;;;;;2.05;100.00;103174.06;5087561;28;20024;-69
2022/01/15 01:38:34;;;;;;;88.70;24.85;;;;;;;2.09;100.00;103162.41;5076531;28;20036;-69
2022/01/15 01:41:01;;;;;;;53.47;21.13;;;;;;;2.08;100.00;103160.72;5088916;28;20081;-69
2022/01/15 01:43:44;;;;;;;53.33;20.73;;;;;;;2.04;100.00;103165.28;5088940;28;20051;-69
2022/01/15 01:46:16;;;;;;;45.67;20.40;;;;;;;1.98;100.00;103160.38;5088903;28;20093;-69
2022/01/15 01:48:42;;;;;;;45.75;16.23;;;;;;;1.97;100.00;103166.59;5088942;28;20484;-69
2022/01/15 01:51:08;;;;;;;46.13;16.40;;;;;;;1.99;100.00;103169.94;5089605;28;20111;-69
2022/01/15 01:53:35;;;;;;;49.20;20.02;;;;;;;1.99;100.00;103169.94;5092670;28;20108;-69
2022/01/15 01:56:01;;;;;;;47.13;18.73;;;;;;;1.96;100.00;103170.13;5092757;28;20039;-69
2022/01/15 01:58:26;;;;;;;42.78;16.67;;;;;;;1.93;100.00;103155.34;5092305;28;20142;-69
2022/01/15 02:00:52;;;;;;;46.65;18.50;;;;;;;1.96;100.00;103159.59;5092382;28;20103;-69
2022/01/15 02:03:17;;;;;;;45.15;17.95;;;;;;;1.97;100.00;103153.44;5092821;28;20024;-69
2022/01/15 02:05:42;;;;;;;43.10;18.33;;;;;;;1.98;100.00;103147.22;5092635;28;20036;-69
2022/01/15 02:08:08;;;;;;;47.78;20.38;;;;;;;1.93;100.00;103130.81;5092483;28;20115;-69
2022/01/15 02:10:34;;;;;;;43.42;20.05;;;;;;;2.02;100.00;103138.22;5092556;28;20055;-69
2022/01/15 02:13:01;;;;;;;38.63;16.77;;;;;;;2.03;100.00;103145.19;5092339;28;20035;-69
2022/01/15 02:15:27;;;;;;;45.47;17.80;;;;;;;2.04;100.00;103140.75;5092240;28;20039;-69
2022/01/15 02:17:53;;;;;;;54.47;21.60;;;;;;;2.05;100.00;103138.06;5091096;28;20020;-69
2022/01/15 02:25:56;;;;;;;49.67;17.25;;;;;;;2.07;100.00;103140.59;5075938;28;20157;-69
2022/01/15 02:28:24;;;;;;;47.83;21.60;;;;;;;2.06;100.00;103145.00;5091132;28;20028;-69
2022/01/15 02:30:55;;;;;;;49.40;21.27;;;;;;;2.08;100.00;103134.41;5092058;28;20039;-69
2022/01/15 02:33:21;;;;;;;49.77;20.00;;;;;;;2.07;100.00;103132.69;5091790;28;20562;-69
2022/01/15 02:35:47;;;;;;;47.40;19.35;;;;;;;2.07;100.00;103122.16;5091517;28;20371;-69
2022/01/15 02:38:12;;;;;;;51.72;20.17;;;;;;;2.06;100.00;103128.38;5091904;28;20024;-69
2022/01/15 02:40:38;;;;;;;53.30;24.65;;;;;;;2.05;100.00;103131.94;5072391;28;20143;-69
2022/01/15 02:43:06;;;;;;;46.20;20.35;;;;;;;2.03;100.00;103123.28;5072487;28;20394;-69
2022/01/15 02:45:33;;;;;;;49.10;20.42;;;;;;;2.05;100.00;103114.38;5072394;28;20476;-69
2022/01/15 02:48:24;;;;;;;62.95;18.45;;;;;;;2.04;100.00;103117.91;5091393;28;20082;-69
2022/01/15 02:50:50;;;;;;;60.67;25.27;;;;;;;2.06;100.00;103117.84;5091650;28;20054;-69
2022/01/15 02:53:17;;;;;;;52.13;23.08;;;;;;;2.08;100.00;103118.63;5091283;28;20487;-69
2022/01/15 02:55:43;;;;;;;50.67;19.52;;;;;;;2.07;100.00;103109.00;5091442;28;20050;-69
2022/01/15 02:58:09;;;;;;;51.33;17.77;;;;;;;2.05;100.00;103101.22;5091239;28;20050;-69
2022/01/15 03:00:35;;;;;;;46.60;20.10;;;;;;;2.04;100.00;103086.34;5077420;28;20036;-69
2022/01/15 03:03:00;;;;;;;49.70;19.00;;;;;;;2.06;100.00;103087.09;5070781;28;20067;-69
2022/01/15 03:05:25;;;;;;;54.50;20.63;;;;;;;2.06;100.00;103084.47;5072266;28;20070;-69
2022/01/15 03:07:51;;;;;;;53.00;19.83;;;;;;;2.06;100.00;103075.72;5071564;28;20038;-69
2022/01/15 03:10:16;;;;;;;43.60;18.08;;;;;;;2.04;100.00;103072.34;5071885;28;20468;-69
2022/01/15 03:12:41;;;;;;;51.45;20.45;;;;;;;2.05;100.00;103068.78;5070443;28;20038;-69
2022/01/15 03:15:08;;;;;;;51.88;19.90;;;;;;;1.98;100.00;103066.47;5071959;28;20021;-69
2022/01/15 03:17:35;;;;;;;54.60;21.35;;;;;;;2.03;100.00;103068.03;5091127;28;20028;-69
2022/01/15 03:20:03;;;;;;;58.00;22.25;;;;;;;2.00;100.00;103058.50;5090960;28;20028;-69
2022/01/15 03:22:28;;;;;;;57.60;25.08;;;;;;;1.97;100.00;103053.44;5091048;28;20043;-69
2022/01/15 03:24:53;;;;;;;52.58;23.95;;;;;;;1.96;100.00;103049.94;5091061;28;20028;-69
2022/01/15 03:27:23;;;;;;;50.00;20.42;;;;;;;2.02;100.00;103053.13;5090846;28;20490;-69
2022/01/15 03:29:49;;;;;;;50.00;23.10;;;;;;;2.03;100.00;103060.13;5089975;28;20059;-69
2022/01/15 03:32:14;;;;;;;46.05;20.08;;;;;;;2.03;100.00;103053.06;5090922;28;20103;-69
2022/01/15 03:34:40;;;;;;;44.15;16.10;;;;;;;2.00;100.00;103042.72;5089201;28;20131;-69
2022/01/15 03:37:05;;;;;;;42.53;20.98;;;;;;;2.02;100.00;103047.88;5091060;28;20032;-69
2022/01/15 03:39:30;;;;;;;41.72;16.38;;;;;;;2.01;100.00;103043.56;5090522;28;20020;-69
2022/01/15 03:41:56;;;;;;;47.83;19.83;;;;;;;2.00;100.00;103037.47;5090576;28;20036;-69
2022/01/15 03:44:21;;;;;;;38.90;13.82;;;;;;;2.02;100.00;103039.97;5090607;28;20058;-69
2022/01/15 03:46:47;;;;;;;41.22;14.73;;;;;;;2.04;100.00;103046.84;5088314;28;20032;-69
2022/01/15 03:49:12;;;;;;;54.10;20.00;;;;;;;2.02;100.00;103034.72;5089903;28;20024;-69
2022/01/15 03:51:37;;;;;;;42.60;16.17;;;;;;;2.04;100.00;103038.97;5089861;28;20115;-69
2022/01/15 03:54:03;;;;;;;41.75;16.83;;;;;;;2.04;100.00;103044.22;5090092;28;20043;-69
2022/01/15 03:56:30;;;;;;;37.58;17.05;;;;;;;2.07;100.00;103035.31;5088582;28;20028;-69
2022/01/15 03:58:56;;;;;;;53.45;16.48;;;;;;;2.08;100.00;103043.13;5090233;28;20097;-69
2022/01/15 04:01:21;;;;;;;34.70;16.23;;;;;;;2.10;100.00;103032.53;5090283;28;20028;-69
2022/01/15 04:03:47;;;;;;;43.10;18.55;;;;;;;2.10;100.00;103028.09;5090109;28;20425;-69
2022/01/15 04:06:12;;;;;;;32.60;12.52;;;;;;;2.10;100.00;103022.00;5090323;28;20042;-69
2022/01/15 04:08:37;;;;;;;34.53;15.45;;;;;;;2.10;100.00;103025.47;5070601;28;20533;-69
2022/01/15 04:11:03;;;;;;;36.53;15.32;;;;;;;2.13;100.00;103025.28;5069474;28;20047;-69
2022/01/15 04:13:28;;;;;;;32.55;14.10;;;;;;;2.15;100.00;103023.44;5070530;28;20033;-69
2022/01/15 04:15:54;;;;;;;38.13;15.45;;;;;;;2.14;100.00;103019.09;5070456;28;20028;-69
2022/01/15 04:18:21;;;;;;;35.42;15.27;;;;;;;2.15;100.00;103015.53;5070480;28;20039;-69
2022/01/15 04:20:47;;;;;;;37.20;16.33;;;;;;;2.15;100.00;103010.28;5069233;28;20557;-69
2022/01/15 04:23:13;;;;;;;32.83;14.63;;;;;;;2.13;100.00;103001.59;5070544;28;20518;-69
2022/01/15 04:25:38;;;;;;;34.88;14.68;;;;;;;2.17;100.00;103007.53;5070551;28;20029;-69
2022/01/15 04:28:08;;;;;;;33.20;13.50;;;;;;;2.18;100.00;103004.81;5070531;28;20020;-69
2022/01/15 04:30:35;;;;;;;33.72;12.65;;;;;;;2.19;100.00;102995.13;5070059;28;20021;-69
2022/01/15 04:33:00;;;;;;;34.40;15.25;;;;;;;2.20;100.00;102988.91;5070013;28;20027;-69
2022/01/15 04:35:26;;;;;;;34.75;14.82;;;;;;;2.19;100.00;102981.97;5070502;28;20033;-69
2022/01/15 04:37:56;;;;;;;33.13;13.52;;;;;;;2.19;100.00;102981.97;5070420;28;20055;-69
2022/01/15 04:40:22;;;;;;;36.58;13.00;;;;;;;2.18;100.00;102983.75;5070335;28;20033;-69
2022/01/15 04:42:47;;;;;;;40.63;15.88;;;;;;;2.19;100.00;102974.91;5070286;28;20417;-69
2022/01/15 04:45:13;;;;;;;35.08;12.88;;;;;;;2.22;100.00;102976.53;5070219;28;20459;-69
2022/01/15 04:47:39;;;;;;;33.90;13.13;;;;;;;2.24;100.00;102976.44;5068812;28;20055;-69
2022/01/15 04:50:08;;;;;;;29.38;12.93;;;;;;;2.26;100.00;102979.84;5089283;28;20053;-69
2022/01/15 04:52:34;;;;;;;31.42;11.85;;;;;;;2.27;100.00;102984.16;5089396;28;20837;-69
2022/01/15 04:55:01;;;;;;;35.17;14.15;;;;;;;2.23;100.00;102966.84;5089568;28;20483;-69
2022/01/15 04:57:27;;;;;;;31.77;11.82;;;;;;;2.28;100.00;102985.84;5089337;28;20039;-69
2022/01/15 04:59:52;;;;;;;34.00;14.45;;;;;;;2.27;100.00;102971.84;5089186;28;20032;-69
2022/01/15 05:02:17;;;;;;;36.55;15.30;;;;;;;2.26;100.00;102972.78;5089264;28;20028;-69
2022/01/15 05:04:43;;;;;;;37.15;13.45;;;;;;;2.25;100.00;102964.97;5089315;28;20471;-69
2022/01/15 05:07:08;;;;;;;32.95;12.77;;;;;;;2.28;100.00;102968.28;5089065;28;20177;-69
2022/01/15 05:09:33;;;;;;;39.88;15.75;;;;;;;2.29;100.00;102967.34;5075482;28;20029;-69
2022/01/15 05:12:03;;;;;;;31.77;14.07;;;;;;;2.29;100.00;102969.13;5069791;28;20028;-69
2022/01/15 05:14:29;;;;;;;45.55;17.60;;;;;;;2.31;100.00;102967.25;5069567;28;20139;-69
2022/01/15 05:16:54;;;;;;;37.00;13.82;;;;;;;2.19;100.00;102942.47;5069772;28;20119;-69
2022/01/15 05:19:20;;;;;;;40.90;17.17;;;;;;;2.27;100.00;102957.84;5069696;28;20032;-69
2022/01/15 05:21:45;;;;;;;38.67;14.93;;;;;;;2.28;100.00;102960.38;5068460;28;20119;-69
2022/01/15 05:24:11;;;;;;;39.85;15.93;;;;;;;2.27;100.00;102950.78;5069720;28;20028;-69
2022/01/15 05:26:36;;;;;;;36.30;15.88;;;;;;;2.27;100.00;102947.31;5071258;28;20155;-69
2022/01/15 05:29:02;;;;;;;42.15;17.55;;;;;;;2.30;100.00;102947.94;5073657;28;20117;-69
2022/01/15 05:31:28;;;;;;;37.08;15.43;;;;;;;2.28;100.00;102935.81;5073904;28;20079;-69
2022/01/15 05:33:54;;;;;;;41.30;16.52;;;;;;;2.27;100.00;102942.03;5072974;28;20116;-69
2022/01/15 05:36:19;;;;;;;44.60;19.45;;;;;;;2.28;100.00;102941.97;5073372;28;20035;-69
2022/01/15 05:38:44;;;;;;;41.03;15.32;;;;;;;2.28;100.00;102934.06;5073490;28;20484;-69
2022/01/15 05:41:10;;;;;;;34.55;16.05;;;;;;;2.29;100.00;102932.25;5083638;28;20032;-69
2022/01/15 05:43:35;;;;;;;39.05;15.32;;;;;;;2.31;100.00;102938.28;5092935;28;20020;-69
2022/01/15 05:46:01;;;;;;;40.65;16.95;;;;;;;2.30;100.00;102940.06;5092861;28;20031;-69
2022/01/15 05:48:26;;;;;;;34.88;15.80;;;;;;;2.30;100.00;102928.69;5092839;28;20133;-69
2022/01/15 05:50:51;;;;;;;39.30;17.05;;;;;;;2.24;100.00;102921.16;5092817;28;20038;-69
2022/01/15 05:53:17;;;;;;;46.22;19.55;;;;;;;2.29;100.00;102919.09;5092970;28;20535;-69
2022/01/15 05:55:42;;;;;;;37.20;15.52;;;;;;;2.26;100.00;102911.38;5092825;28;20486;-69
2022/01/15 05:58:07;;;;;;;40.25;18.42;;;;;;;2.27;100.00;102913.91;5096497;28;20052;-69
2022/01/15 06:00:34;;;;;;;47.95;16.98;;;;;;;2.24;100.00;102910.63;5092365;28;20047;-69
2022/01/15 06:02:59;;;;;;;39.20;15.98;;;;;;;2.25;100.00;102912.31;5092450;28;20032;-69
2022/01/15 06:05:25;;;;;;;43.70;15.02;;;;;;;2.25;100.00;102909.69;5091053;28;20035;-69
2022/01/15 06:07:50;;;;;;;39.10;15.95;;;;;;;2.10;100.00;102904.41;5092002;28;20086;-69
2022/01/15 06:10:16;;;;;;;42.10;20.65;;;;;;;2.16;100.00;102913.72;5092550;28;20024;-69
2022/01/15 06:12:44;;;;;;;43.10;16.65;;;;;;;2.13;100.00;102912.09;5092367;28;20055;-69
2022/01/15 06:15:11;;;;;;;42.00;16.95;;;;;;;2.13;100.00;102909.47;5092492;28;20032;-69
2022/01/15 06:17:37;;;;;;;43.22;18.48;;;;;;;2.12;100.00;102904.28;5092360;28;20028;-69
2022/01/15 06:20:03;;;;;;;43.00;17.00;;;;;;;2.13;100.00;102904.22;5092333;28;20471;-69
2022/01/15 06:22:29;;;;;;;44.08;20.50;;;;;;;2.12;100.00;102907.78;5092222;28;20036;-69
2022/01/15 06:24:54;;;;;;;43.55;18.35;;;;;;;2.14;100.00;102905.06;5091645;28;20101;-69
2022/01/15 06:27:19;;;;;;;52.33;22.42;;;;;;;2.10;100.00;102893.88;5072591;28;20063;-69
2022/01/15 06:29:46;;;;;;;47.67;20.48;;;;;;;2.12;100.00;102896.41;5074190;28;20455;-69
2022/01/15 06:32:12;;;;;;;53.70;21.50;;;;;;;2.12;100.00;102894.63;5092068;28;20089;-69
2022/01/15 06:34:37;;;;;;;50.95;19.55;;;;;;;2.10;100.00;102895.66;5091637;28;20059;-69
2022/01/15 06:37:04;;;;;;;45.08;18.73;;;;;;;2.08;100.00;102885.22;5091660;28;20064;-69
2022/01/15 06:39:30;;;;;;;34.13;13.32;;;;;;;2.08;100.00;102879.09;5091819;28;20550;-69
2022/01/15 06:41:55;;;;;;;37.45;16.75;;;;;;;2.10;100.00;102882.50;5092352;28;20034;-69
2022/01/15 06:44:21;;;;;;;41.22;17.35;;;;;;;2.11;100.00;102886.81;5091848;28;20055;-69
2022/01/15 06:46:46;;;;;;;45.75;17.67;;;;;;;2.10;100.00;102882.50;5091793;28;20052;-69
2022/01/15 06:49:12;;;;;;;43.13;16.23;;;;;;;2.09;100.00;102881.63;5091796;28;20031;-69
2022/01/15 06:51:37;;;;;;;42.00;15.57;;;;;;;2.09;100.00;102884.25;5091741;28;20034;-69
2022/01/15 06:54:02;;;;;;;38.22;16.17;;;;;;;2.05;100.00;102880.13;5091613;28;20384;-69
2022/01/15 06:56:28;;;;;;;41.90;17.27;;;;;;;2.03;100.00;102875.91;5090128;28;20042;-69
2022/01/15 06:58:53;;;;;;;63.42;20.25;;;;;;;1.98;100.00;102882.28;5091417;28;20063;-69
2022/01/15 07:01:18;;;;;;;37.65;16.13;;;;;;;1.98;100.00;102874.38;5091344;28;20471;-69
2022/01/15 07:03:44;;;;;;;37.47;13.32;;;;;;;1.98;100.00;102873.53;5091477;28;20032;-69
2022/01/15 07:06:09;;;;;;;40.15;16.30;;;;;;;1.95;100.00;102871.94;5091304;28;20036;-69
2022/01/15 07:08:34;;;;;;;40.05;15.80;;;;;;;1.94;100.00;102869.41;5091458;28;20111;-69
2022/01/15 07:11:00;;;;;;;34.50;13.63;;;;;;;1.93;100.00;102872.97;5091111;28;20391;-69
2022/01/15 07:13:26;;;;;;;35.67;13.20;;;;;;;1.90;100.00;102873.13;5091175;28;20042;-69
2022/01/15 07:15:52;;;;;;;44.60;15.88;;;;;;;1.91;100.00;102878.31;5091170;28;20133;-69
2022/01/15 07:18:18;;;;;;;37.17;15.15;;;;;;;1.86;100.00;102869.84;5091073;28;20984;-69
2022/01/15 07:20:44;;;;;;;47.55;19.75;;;;;;;1.90;100.00;102883.66;5091231;28;20111;-69
2022/01/15 07:23:10;;;;;;;52.40;19.63;;;;;;;1.87;100.00;102881.22;5091052;28;20048;-69
2022/01/15 07:25:35;;;;;;;44.15;17.67;;;;;;;1.87;100.00;102882.06;5091029;28;20034;-69
2022/01/15 07:28:00;;;;;;;53.75;22.35;;;;;;;1.88;100.00;102877.63;5090861;28;20391;-69
2022/01/15 07:30:26;;;;;;;56.28;22.75;;;;;;;1.91;100.00;102875.69;5090980;28;20035;-69
2022/01/15 07:32:51;;;;;;;56.83;21.05;;;;;;;1.91;100.00;102886.22;5090832;28;20038;-69
2022/01/15 07:35:18;;;;;;;48.55;21.02;;;;;;;1.89;100.00;102888.09;5090789;28;20441;-69
2022/01/15 07:37:43;;;;;;;44.05;18.77;;;;;;;1.79;100.00;102870.31;5090092;28;20024;-69
2022/01/15 07:40:09;;;;;;;48.35;18.35;;;;;;;1.84;100.00;102871.72;5090719;28;20038;-69
2022/01/15 07:42:37;;;;;;;52.85;18.20;;;;;;;1.82;100.00;102878.00;5082432;28;20075;-69
2022/01/15 07:45:08;;;;;;;40.88;16.20;;;;;;;1.77;100.00;102873.00;5090574;28;20035;-69
2022/01/15 07:47:34;;;;;;;42.63;16.10;;;;;;;1.74;100.00;102879.28;5089465;28;20023;-69
2022/01/15 07:49:59;;;;;;;49.85;21.60;;;;;;;1.75;100.00;102880.97;5088471;28;20436;-69
2022/01/15 07:52:26;;;;;;;46.75;16.40;;;;;;;1.74;100.00;102883.72;5090450;28;20038;-69
2022/01/15 07:54:51;;;;;;;45.35;17.15;;;;;;;1.74;100.00;102881.91;5090288;28;20036;-69
2022/01/15 07:57:17;;;;;;;51.35;16.98;;;;;;;1.71;100.00;102881.25;5090556;28;20036;-69
2022/01/15 07:59:42;;;;;;;42.25;15.43;;;;;;;1.66;100.00;102884.16;5090158;28;20102;-69
2022/01/15 08:02:07;;;;;;;48.33;14.40;;;;;;;1.62;100.00;102882.63;5089081;28;20032;-69
2022/01/15 08:04:33;;;;;;;41.72;14.10;;;;;;;1.61;100.00;102883.56;5088825;28;20043;-69
2022/01/15 08:06:58;;;;;;;41.90;13.65;;;;;;;1.56;100.00;102884.78;5090350;28;20036;-69
2022/01/15 08:09:23;;;;;;;40.53;17.65;;;;;;;1.51;100.00;102880.59;5090204;28;20066;-69
2022/01/15 08:11:49;;;;;;;35.95;13.57;;;;;;;1.52;100.00;102879.69;5089878;28;20036;-69
2022/01/15 08:14:14;;;;;;;42.22;12.77;;;;;;;1.46;100.00;102869.50;5090163;28;20119;-66
2022/01/15 08:16:39;;;;;;;31.20;11.75;;;;;;;1.45;100.00;102869.59;5089661;28;20039;-66
2022/01/15 08:19:05;;;;;;;35.38;12.90;;;;;;;1.43;100.00;102863.56;5089985;28;20119;-66
2022/01/15 08:21:30;;;;;;;32.88;14.10;;;;;;;1.44;100.00;102867.88;5089939;28;20046;-66
2022/01/15 08:23:56;;;;;;;48.42;14.40;;;;;;;1.39;100.00;102855.03;5089962;28;20024;-66
2022/01/15 08:26:21;;;;;;;35.78;15.25;;;;;;;1.35;100.00;102865.81;5089897;28;20077;-66
2022/01/15 08:28:46;;;;;;;50.22;19.77;;;;;;;1.36;100.00;102863.06;5090115;28;20031;-66
2022/01/15 08:31:12;;;;;;;35.55;13.65;;;;;;;1.31;100.00;102862.50;5089592;28;20039;-66
2022/01/15 08:33:37;;;;;;;45.15;16.20;;;;;;;1.29;100.00;102877.50;5089837;28;20453;-66
2022/01/15 08:36:03;;;;;;;43.03;14.35;;;;;;;1.28;100.00;102878.41;5089706;28;20479;-66
2022/01/15 08:38:28;;;;;;;47.08;19.88;;;;;;;1.27;100.00;102880.22;5087784;28;20290;-66
2022/01/15 08:40:53;;;;;;;44.72;15.55;;;;;;;1.31;100.00;102886.16;5088170;28;20126;-66
2022/01/15 08:43:19;;;;;;;44.35;16.83;;;;;;;1.32;100.00;102882.59;5089664;28;20114;-66
2022/01/15 08:45:46;;;;;;;42.20;20.15;;;;;;;1.29;100.00;102869.63;5089615;28;20077;-66
2022/01/15 08:48:11;;;;;;;47.50;18.50;;;;;;;1.30;100.00;102882.66;5089622;28;20032;-67
2022/01/15 08:50:37;;;;;;;48.10;20.83;;;;;;;1.23;100.00;102868.19;5089637;28;20548;-72
2022/01/15 08:53:06;;;;;;;52.03;19.80;;;;;;;1.27;100.00;102874.97;5089304;28;20514;-66
2022/01/15 08:55:35;;;;;;;44.38;19.65;;;;;;;1.23;100.00;102869.94;5089415;28;20119;-66
2022/01/15 08:58:02;;;;;;;68.75;20.17;;;;;;;1.25;100.00;102875.97;5089352;28;20023;-66
2022/01/15 09:00:28;;;;;;;38.95;14.57;;;;;;;1.27;100.00;102884.63;5089324;28;20077;-66
2022/01/15 09:02:55;;;;;;;39.38;13.48;;;;;;;1.25;100.00;102874.19;5089380;28;20028;-66
2022/01/15 09:05:21;;;;;;;40.83;14.70;;;;;;;1.27;100.00;102884.63;5089557;28;20044;-66
2022/01/15 09:07:47;;;;;;;33.83;15.02;;;;;;;1.24;100.00;102885.66;5089318;28;20038;-66
2022/01/15 09:10:13;;;;;;;72.85;15.25;;;;;;;1.16;100.00;102860.72;5071030;28;20028;-66
2022/01/15 09:12:38;;;;;;;28.40;12.07;;;;;;;1.22;100.00;102876.16;5069775;28;20076;-67
2022/01/15 09:15:04;;;;;;;34.22;13.20;;;;;;;1.20;100.00;102870.13;5069499;28;20035;-66
2022/01/15 09:17:30;;;;;;;43.20;14.85;;;;;;;1.15;100.00;102865.13;5069796;28;20028;-66
2022/01/15 09:19:55;;;;;;;35.03;13.98;;;;;;;1.14;100.00;102868.69;5069833;28;20551;-66
2022/01/15 09:22:21;;;;;;;28.13;13.05;;;;;;;1.18;100.00;102866.72;5069811;28;20047;-66
2022/01/15 09:24:47;;;;;;;36.00;12.63;;;;;;;1.19;100.00;102864.03;5069905;28;20114;-66
2022/01/15 09:30:15;;;;;;;33.00;10.85;;;;;;;1.18;100.00;102853.59;5070079;28;20059;-66
2022/01/15 09:32:44;;;;;;;29.48;12.95;;;;;;;1.20;100.00;102862.25;5089032;28;20514;-67
2022/01/15 09:35:10;;;;;;;28.27;11.43;;;;;;;1.22;100.00;102849.88;5088878;28;20032;-66
2022/01/15 09:37:36;;;;;;;30.75;14.07;;;;;;;1.20;100.00;102852.56;5089084;28;20494;-67
2022/01/15 09:40:03;;;;;;;24.83;11.63;;;;;;;1.19;100.00;102850.88;5088843;28;20047;-67
2022/01/15 09:42:28;;;;;;;28.63;11.57;;;;;;;1.18;100.00;102838.69;5088609;28;20023;-67
2022/01/15 09:44:54;;;;;;;24.13;10.30;;;;;;;1.19;100.00;102850.03;5088983;28;20020;-67
2022/01/15 09:47:21;;;;;;;32.10;12.88;;;;;;;1.24;100.00;102850.63;5089012;28;20032;-67
2022/01/15 09:49:48;;;;;;;26.20;11.40;;;;;;;1.23;100.00;102851.56;5088995;28;20023;-66
2022/01/15 09:52:15;;;;;;;30.70;11.55;;;;;;;1.23;100.00;102848.91;5088915;28;20494;-66
2022/01/15 09:54:40;;;;;;;37.50;12.63;;;;;;;1.21;100.00;102843.78;5088893;28;20037;-66
2022/01/15 09:57:06;;;;;;;40.63;14.50;;;;;;;1.21;100.00;102832.41;5088913;28;20038;-66
2022/01/15 09:59:31;;;;;;;25.55;12.10;;;;;;;1.25;100.00;102837.38;5070380;28;20094;-66
2022/01/15 10:02:02;;;;;;;29.90;14.50;;;;;;;1.25;100.00;102829.50;5088484;28;20158;-66
2022/01/15 10:04:31;;;;;;;34.55;14.65;;;;;;;1.27;100.00;102843.41;5088826;28;20031;-66
2022/01/15 10:07:17;;;;;;;34.67;15.20;;;;;;;1.29;100.00;102835.47;5089046;28;20387;-66
2022/01/15 10:09:45;;;;;;;35.78;16.17;;;;;;;1.25;100.00;102840.00;5088815;28;20023;-66
2022/01/15 10:12:22;;;;;;;36.10;15.52;;;;;;;1.25;100.00;102844.44;5089301;28;20476;-66
2022/01/15 10:14:47;;;;;;;35.00;16.85;;;;;;;1.25;100.00;102845.28;5092422;28;20035;-66
2022/01/15 10:17:30;;;;;;;32.17;14.93;;;;;;;1.24;100.00;102840.13;5092414;28;20079;-67
2022/01/15 10:19:59;;;;;;;37.17;17.00;;;;;;;1.31;100.00;102849.38;5092284;28;20035;-66
2022/01/15 10:22:26;;;;;;;34.25;13.52;;;;;;;1.37;100.00;102849.00;5092240;28;20024;-66
2022/01/15 10:25:10;;;;;;;38.80;14.98;;;;;;;1.37;100.00;102851.63;5092555;28;20074;-67
2022/01/15 10:27:51;;;;;;;32.72;15.30;;;;;;;1.42;100.00;102854.00;5072861;28;20024;-67
2022/01/15 10:30:26;;;;;;;34.28;15.63;;;;;;;1.41;100.00;102841.78;5092050;28;20027;-66
2022/01/15 10:33:06;;;;;;;34.78;14.10;;;;;;;1.36;100.00;102836.78;5091989;28;20544;-66
2022/01/15 10:35:33;;;;;;;38.00;17.73;;;;;;;1.42;100.00;102846.13;5092409;28;20483;-66
2022/01/15 10:38:01;;;;;;;34.28;15.25;;;;;;;1.46;100.00;102835.31;5091842;28;20054;-66
2022/01/15 10:40:38;;;;;;;35.85;16.75;;;;;;;1.40;100.00;102819.06;5090534;28;20522;-66
2022/01/15 10:43:03;;;;;;;35.10;13.73;;;;;;;1.44;100.00;102828.44;5090188;28;20039;-66
2022/01/15 10:45:31;;;;;;;32.20;14.85;;;;;;;1.43;100.00;102830.25;5091928;28;20035;-66
2022/01/15 10:47:58;;;;;;;34.15;14.88;;;;;;;1.41;100.00;102818.97;5091739;28;20031;-66
2022/01/15 10:50:26;;;;;;;35.95;17.17;;;;;;;1.44;100.00;102826.69;5091736;28;20020;-66
2022/01/15 10:52:53;;;;;;;33.72;16.15;;;;;;;1.47;100.00;102823.88;5091705;28;20055;-66
2022/01/15 10:55:28;;;;;;;38.53;18.52;;;;;;;1.48;100.00;102828.19;5091627;28;20102;-67
2022/01/15 10:58:00;;;;;;;36.33;17.70;;;;;;;1.53;100.00;102817.41;5091391;28;20102;-66
2022/01/15 11:00:42;;;;;;;;;;;;;;;1.62;100.00;102822.13;5091684;28;20056;-67
2022/01/15 11:03:17;;;;;;;34.75;15.65;;;;;;;1.62;100.00;102808.97;5091340;28;20355;-66
2022/01/15 11:05:47;;;;;;;38.05;14.57;;;;;;;1.57;100.00;102811.03;5091071;28;20032;-67
2022/01/15 11:08:14;;;;;;;52.65;18.85;;;;;;;1.64;100.00;102812.38;5091664;28;20043;-67
2022/01/15 11:10:48;;;;;;;37.42;16.83;;;;;;;1.68;100.00;102807.81;5091614;28;20475;-67
2022/01/15 11:13:16;;;;;;;36.42;15.82;;;;;;;1.67;100.00;102800.81;5091373;28;20491;-67
2022/01/15 11:15:44;;;;;;;35.42;16.15;;;;;;;1.69;100.00;102801.59;5091396;28;20028;-66
2022/01/15 11:18:32;;;;;;;37.78;15.65;;;;;;;1.66;100.00;102792.09;5070257;28;20025;-67
2022/01/15 11:21:02;;;;;;;32.50;16.27;;;;;;;1.71;100.00;102797.94;5091125;28;20043;-66
2022/01/15 11:23:29;;;;;;;36.67;16.35;;;;;;;1.73;100.00;102795.22;5090511;28;20065;-67
2022/01/15 11:25:58;;;;;;;36.85;14.93;;;;;;;1.71;100.00;102790.03;5090713;28;20038;-66
2022/01/15 11:28:26;;;;;;;37.05;16.35;;;;;;;1.64;100.00;102791.34;5090845;28;20030;-66
2022/01/15 11:30:55;;;;;;;39.17;17.63;;;;;;;1.58;100.00;102781.19;5090823;28;20035;-66
2022/01/15 11:33:23;;;;;;;35.58;16.17;;;;;;;1.65;100.00;102779.03;5090975;28;20028;-67
2022/01/15 11:35:50;;;;;;;35.58;17.60;;;;;;;1.66;100.00;102792.09;5090706;28;20102;-66